createdAt,value
2023-03-06T00:01:23.870Z,4.22
2023-03-06T00:04:32.445Z,4.37
2023-03-06T00:07:47.898Z,4.20
2023-03-06T00:11:04.872Z,4.40
2023-03-06T00:14:13.498Z,4.65
2023-03-06T00:17:21.961Z,4.18
2023-03-06T00:20:39.801Z,3.92
2023-03-06T00:23:47.873Z,3.67
2023-03-06T00:27:02.977Z,3.87
2023-03-06T00:30:05.550Z,4.43
2023-03-06T00:33:19.930Z,4.20
2023-03-06T00:36:34.945Z,3.85
2023-03-06T00:39:37.145Z,4.28
2023-03-06T00:42:52.906Z,3.90
2023-03-06T00:45:54.844Z,3.70
2023-03-06T00:49:10.927Z,4.40
2023-03-06T00:52:19.863Z,4.20
2023-03-06T00:55:28.941Z,3.75
2023-03-06T00:58:37.503Z,4.20
2023-03-06T01:01:51.961Z,4.12
2023-03-06T01:04:53.896Z,4.03
2023-03-06T01:08:09.944Z,4.18
2023-03-06T01:11:17.940Z,3.90
2023-03-06T01:14:33.897Z,4.57
2023-03-06T01:17:41.955Z,4.00
2023-03-06T01:20:57.233Z,3.90
2023-03-06T01:24:05.985Z,3.80
2023-03-06T01:27:20.929Z,4.43
2023-03-06T01:30:29.498Z,3.77
2023-03-06T01:33:38.005Z,3.85
2023-03-06T01:36:53.121Z,3.92
2023-03-06T01:40:07.968Z,4.22
2023-03-06T01:43:39.918Z,3.90
2023-03-06T01:46:43.646Z,4.07
2023-03-06T01:50:00.008Z,4.40
2023-03-06T01:53:01.956Z,3.50
2023-03-06T01:56:20.003Z,3.72
2023-03-06T01:59:23.681Z,3.62
2023-03-06T02:02:39.060Z,4.50
2023-03-06T02:05:42.608Z,3.35
2023-03-06T02:08:59.049Z,3.97
2023-03-06T02:12:09.940Z,3.58
2023-03-06T02:15:28.954Z,3.47
2023-03-06T02:18:52.946Z,4.00
2023-03-06T02:22:09.955Z,3.30
2023-03-06T02:25:38.569Z,3.70
2023-03-06T02:28:46.961Z,3.65
2023-03-06T02:31:56.138Z,4.03
2023-03-06T02:35:11.946Z,3.27
2023-03-06T02:38:17.642Z,3.70
2023-03-06T02:41:33.015Z,3.95
2023-03-06T02:44:47.933Z,3.60
2023-03-06T02:47:49.831Z,3.42
2023-03-06T02:51:04.976Z,3.77
2023-03-06T02:54:13.593Z,3.58
2023-03-06T02:57:21.956Z,3.78
2023-03-06T03:00:39.023Z,3.72
2023-03-06T03:03:41.865Z,3.35
2023-03-06T03:06:57.064Z,3.50
2023-03-06T03:09:58.907Z,3.35
2023-03-06T03:13:14.003Z,3.45
2023-03-06T03:16:23.063Z,3.75
2023-03-06T03:19:37.950Z,3.80
2023-03-06T03:22:57.967Z,4.20
2023-03-06T03:26:14.939Z,4.15
2023-03-06T03:29:17.589Z,3.78
2023-03-06T03:32:33.077Z,4.32
2023-03-06T03:35:42.112Z,3.67
2023-03-06T03:38:50.602Z,3.53
2023-03-06T03:41:58.961Z,3.45
2023-03-06T03:45:14.957Z,5.35
2023-03-06T03:48:16.722Z,3.40
2023-03-06T03:51:31.028Z,3.62
2023-03-06T03:54:33.648Z,3.23
2023-03-06T03:57:47.998Z,3.22
2023-03-06T04:00:50.023Z,3.58
2023-03-06T04:04:05.017Z,3.42
2023-03-06T04:07:06.854Z,3.25
2023-03-06T04:10:21.978Z,3.20
2023-03-06T04:13:24.590Z,3.70
2023-03-06T04:16:39.005Z,3.62
2023-03-06T04:19:53.994Z,3.47
2023-03-06T04:23:09.010Z,3.37
2023-03-06T04:26:10.820Z,3.40
2023-03-06T04:29:25.985Z,3.50
2023-03-06T04:32:34.635Z,3.75
2023-03-06T04:35:49.061Z,4.65
2023-03-06T04:38:50.992Z,4.28
2023-03-06T04:42:07.001Z,3.77
2023-03-06T04:45:23.098Z,4.62
2023-03-06T04:48:25.151Z,5.07
2023-03-06T04:51:40.035Z,5.25
2023-03-06T04:54:48.617Z,5.78
2023-03-06T04:58:05.011Z,4.40
2023-03-06T05:01:07.061Z,4.68
2023-03-06T05:04:22.029Z,5.12
2023-03-06T05:07:30.138Z,4.95
2023-03-06T05:10:45.058Z,5.20
2023-03-06T05:13:53.696Z,4.97
2023-03-06T05:17:02.007Z,4.60
2023-03-06T05:20:26.172Z,5.25
2023-03-06T05:23:29.184Z,5.72
2023-03-06T05:26:44.083Z,4.97
2023-03-06T05:29:53.026Z,5.63
2023-03-06T05:33:08.069Z,6.20
2023-03-06T05:36:17.066Z,5.40
2023-03-06T05:39:25.793Z,5.47
2023-03-06T05:42:40.042Z,5.53
2023-03-06T05:45:55.042Z,5.80
2023-03-06T05:49:10.150Z,5.35
2023-03-06T05:52:13.235Z,5.45
2023-03-06T05:55:28.014Z,6.18
2023-03-06T05:58:44.073Z,5.90
2023-03-06T06:01:46.516Z,5.37
2023-03-06T06:05:01.057Z,5.30
2023-03-06T06:08:02.958Z,5.57
2023-03-06T06:11:19.049Z,5.85
2023-03-06T06:14:28.077Z,11.20
2023-03-06T06:17:50.098Z,5.67
2023-03-06T06:21:05.142Z,5.25
2023-03-06T06:24:22.085Z,6.07
2023-03-06T06:27:30.634Z,4.93
2023-03-06T06:30:45.174Z,5.68
2023-03-06T06:33:53.721Z,5.70
2023-03-06T06:37:02.087Z,5.82
2023-03-06T06:40:18.037Z,5.20
2023-03-06T06:43:26.074Z,5.82
2023-03-06T06:50:11.091Z,5.70
2023-03-06T06:53:19.670Z,5.18
2023-03-06T06:56:34.103Z,5.57
2023-03-06T06:59:43.130Z,6.30
2023-03-06T07:02:52.081Z,6.35
2023-03-06T07:06:00.955Z,5.30
2023-03-06T07:09:17.094Z,5.50
2023-03-06T07:12:32.808Z,5.87
2023-03-06T07:15:41.167Z,5.47
2023-03-06T07:18:50.393Z,5.53
2023-03-06T07:22:05.180Z,5.10
2023-03-06T07:25:14.086Z,7.53
2023-03-06T07:28:22.999Z,3.80
2023-03-06T07:31:34.147Z,5.32
2023-03-06T07:34:50.425Z,4.10
2023-03-06T07:41:22.480Z,5.00
2023-03-06T07:44:30.901Z,5.05
2023-03-06T07:47:47.107Z,5.25
2023-03-06T07:51:07.187Z,5.35
2023-03-06T07:54:23.306Z,6.40
2023-03-06T07:57:32.127Z,6.97
2023-03-06T08:00:47.114Z,7.65
2023-03-06T08:03:55.959Z,6.93
2023-03-06T08:07:12.097Z,5.90
2023-03-06T08:10:27.667Z,8.40
2023-03-06T08:13:36.640Z,6.35
2023-03-06T08:16:51.114Z,6.65
2023-03-06T08:20:05.378Z,5.45
2023-03-06T08:23:14.062Z,5.35
2023-03-06T08:26:33.178Z,5.57
2023-03-06T08:29:35.146Z,5.90
2023-03-06T08:32:53.105Z,5.40
2023-03-06T08:36:08.138Z,6.40
2023-03-06T08:39:17.097Z,6.75
2023-03-06T08:42:32.121Z,5.80
2023-03-06T08:45:33.895Z,6.03
2023-03-06T08:48:49.134Z,5.85
2023-03-06T08:51:57.934Z,6.70
2023-03-06T08:55:07.246Z,6.10
2023-03-06T08:58:22.198Z,6.43
2023-03-06T09:01:33.433Z,7.28
2023-03-06T09:04:48.163Z,7.22
2023-03-06T09:08:03.171Z,7.32
2023-03-06T09:11:21.115Z,7.30
2023-03-06T09:14:31.209Z,6.97
2023-03-06T09:17:40.145Z,6.87
2023-03-06T09:20:55.120Z,7.35
2023-03-06T09:23:57.419Z,7.00
2023-03-06T09:27:44.159Z,7.70
2023-03-06T09:31:00.260Z,7.30
2023-03-06T09:34:08.949Z,7.15
2023-03-06T09:37:17.437Z,6.93
2023-03-06T09:40:39.134Z,6.45
2023-03-06T09:43:58.180Z,7.03
2023-03-06T09:47:21.826Z,7.00
2023-03-06T09:50:51.092Z,7.12
2023-03-06T09:54:11.151Z,6.53
2023-03-06T09:57:26.030Z,7.72
2023-03-06T10:00:45.191Z,6.60
2023-03-06T10:04:18.217Z,7.00
2023-03-06T10:07:23.708Z,7.10
2023-03-06T10:10:51.175Z,7.40
2023-03-06T10:14:07.507Z,7.72
2023-03-06T10:17:25.142Z,8.27
2023-03-06T10:20:39.352Z,31.90
2023-03-06T10:24:01.168Z,13.68
2023-03-06T10:27:22.223Z,9.02
2023-03-06T10:30:50.653Z,8.23
2023-03-06T10:34:08.166Z,9.45
2023-03-06T10:37:27.257Z,9.60
2023-03-06T10:40:50.214Z,8.30
2023-03-06T10:44:19.846Z,8.73
2023-03-06T10:47:36.161Z,8.10
2023-03-06T10:50:44.908Z,8.00
2023-03-06T10:54:01.214Z,8.30
2023-03-06T10:57:32.217Z,9.07
2023-03-06T11:01:07.440Z,10.40
2023-03-06T11:04:44.317Z,9.48
2023-03-06T11:07:56.472Z,9.38
2023-03-06T11:11:11.133Z,10.13
2023-03-06T11:14:33.251Z,8.27
2023-03-06T11:17:38.087Z,10.18
2023-03-06T11:20:57.225Z,9.43
2023-03-06T11:24:25.228Z,9.80
2023-03-06T11:27:38.222Z,10.07
2023-03-06T11:30:54.850Z,8.13
2023-03-06T11:34:15.203Z,8.50
2023-03-06T11:37:50.179Z,8.20
2023-03-06T11:41:05.299Z,7.78
2023-03-06T11:44:28.166Z,8.47
2023-03-06T11:47:47.242Z,8.75
2023-03-06T11:51:06.535Z,7.97
2023-03-06T11:54:19.215Z,13.27
2023-03-06T11:57:45.240Z,9.93
2023-03-06T12:01:07.241Z,9.00
2023-03-06T12:04:35.757Z,10.27
2023-03-06T12:08:04.204Z,24.25
2023-03-06T12:11:33.161Z,11.23
2023-03-06T12:15:18.183Z,8.25
2023-03-06T12:18:56.231Z,8.13
2023-03-06T12:22:23.356Z,7.80
2023-03-06T12:25:43.164Z,8.23
2023-03-06T12:29:28.283Z,10.90
2023-03-06T12:32:59.263Z,8.43
2023-03-06T12:36:28.469Z,9.03
2023-03-06T12:40:10.261Z,13.20
2023-03-06T12:43:51.409Z,9.35
2023-03-06T12:47:14.209Z,8.52
2023-03-06T12:50:32.561Z,8.15
2023-03-06T12:53:48.233Z,8.03
2023-03-06T12:56:52.004Z,9.00
2023-03-06T13:00:07.383Z,8.23
2023-03-06T13:03:48.257Z,8.65
2023-03-06T13:10:50.250Z,7.97
2023-03-06T13:13:58.720Z,7.80
2023-03-06T13:17:41.341Z,9.63
2023-03-06T13:20:44.783Z,8.90
2023-03-06T13:24:11.286Z,9.90
2023-03-06T13:27:49.816Z,8.47
2023-03-06T13:30:58.265Z,9.60
2023-03-06T13:34:33.653Z,9.63
2023-03-06T13:37:44.509Z,9.98
2023-03-06T13:41:31.240Z,7.82
2023-03-06T13:44:40.993Z,8.70
2023-03-06T13:51:32.443Z,9.05
2023-03-06T13:54:58.312Z,10.48
2023-03-06T13:58:40.302Z,10.75
2023-03-06T14:02:24.348Z,10.93
2023-03-06T14:05:43.938Z,9.38
2023-03-06T14:08:53.283Z,10.20
2023-03-06T14:12:31.333Z,9.43
2023-03-06T14:15:49.407Z,9.18
2023-03-06T14:19:00.725Z,9.50
2023-03-06T14:22:10.226Z,10.43
2023-03-06T14:25:38.266Z,11.07
2023-03-06T14:28:46.325Z,9.15
2023-03-06T14:32:04.318Z,9.93
2023-03-06T14:35:25.125Z,9.93
2023-03-06T14:38:37.406Z,9.13
2023-03-06T14:41:45.885Z,17.25
2023-03-06T14:44:56.344Z,12.85
2023-03-06T14:48:13.389Z,11.70
2023-03-06T14:54:42.252Z,9.48
2023-03-06T14:58:04.284Z,9.73
2023-03-06T15:01:14.846Z,18.45
2023-03-06T15:04:38.325Z,9.18
2023-03-06T15:07:41.913Z,9.57
2023-03-06T15:11:07.296Z,8.65
2023-03-06T15:14:26.416Z,8.65
2023-03-06T15:17:40.530Z,10.38
2023-03-06T15:20:54.379Z,10.40
2023-03-06T15:24:32.706Z,10.50
2023-03-06T15:27:47.286Z,9.27
2023-03-06T15:31:01.383Z,9.65
2023-03-06T15:34:25.287Z,9.68
2023-03-06T15:37:34.316Z,9.82
2023-03-06T15:40:42.265Z,9.43
2023-03-06T15:43:50.988Z,10.15
2023-03-06T15:47:07.816Z,12.40
2023-03-06T15:50:22.027Z,11.77
2023-03-06T15:53:33.797Z,10.75
2023-03-06T15:56:51.313Z,8.37
2023-03-06T15:59:54.061Z,8.35
2023-03-06T16:03:11.347Z,9.30
2023-03-06T16:06:16.866Z,9.55
2023-03-06T16:09:31.371Z,10.50
2023-03-06T16:12:57.307Z,9.90
2023-03-06T16:16:13.370Z,12.30
2023-03-06T16:19:27.307Z,8.75
2023-03-06T16:23:07.403Z,17.40
2023-03-06T16:26:23.107Z,10.27
2023-03-06T16:29:33.459Z,15.48
2023-03-06T16:32:42.054Z,8.30
2023-03-06T16:35:50.388Z,9.43
2023-03-06T16:38:58.978Z,9.65
2023-03-06T16:42:07.390Z,11.18
2023-03-06T16:45:24.289Z,9.82
2023-03-06T16:48:33.377Z,9.70
2023-03-06T16:51:48.340Z,11.57
2023-03-06T16:54:57.371Z,9.38
2023-03-06T16:58:06.223Z,9.77
2023-03-06T17:01:16.343Z,10.32
2023-03-06T17:04:32.365Z,7.90
2023-03-06T17:07:35.328Z,8.50
2023-03-06T17:10:50.347Z,9.02
2023-03-06T17:13:52.583Z,10.30
2023-03-06T17:17:07.404Z,8.70
2023-03-06T17:20:11.005Z,8.77
2023-03-06T17:23:28.415Z,9.05
2023-03-06T17:26:43.465Z,9.27
2023-03-06T17:29:52.365Z,9.35
2023-03-06T17:33:01.374Z,9.88
2023-03-06T17:36:10.426Z,9.33
2023-03-06T17:39:25.716Z,9.35
2023-03-06T17:42:28.232Z,10.25
2023-03-06T17:45:43.318Z,10.75
2023-03-06T17:48:51.173Z,10.65
2023-03-06T17:52:09.371Z,11.17
2023-03-06T17:55:24.329Z,10.98
2023-03-06T17:58:27.088Z,10.93
2023-03-06T18:01:41.506Z,10.45
2023-03-06T18:04:50.374Z,10.13
2023-03-06T18:08:05.360Z,10.03
2023-03-06T18:11:21.388Z,10.00
2023-03-06T18:14:32.795Z,9.60
2023-03-06T18:17:47.347Z,9.75
2023-03-06T18:21:03.433Z,11.27
2023-03-06T18:24:05.615Z,12.93
2023-03-06T18:27:20.376Z,10.75
2023-03-06T18:30:22.436Z,12.85
2023-03-06T18:33:38.498Z,10.63
2023-03-06T18:36:48.367Z,10.48
2023-03-06T18:39:57.166Z,10.13
2023-03-06T18:43:06.418Z,9.52
2023-03-06T18:46:14.970Z,10.25
2023-03-06T18:49:23.526Z,9.90
2023-03-06T18:52:40.365Z,10.43
2023-03-06T18:55:51.307Z,12.37
2023-03-06T18:59:10.513Z,10.50
2023-03-06T19:02:13.088Z,11.40
2023-03-06T19:05:27.528Z,10.85
2023-03-06T19:08:45.379Z,11.68
2023-03-06T19:11:54.995Z,12.47
2023-03-06T19:15:10.513Z,11.82
2023-03-06T19:18:16.470Z,16.92
2023-03-06T19:21:34.562Z,12.27
2023-03-06T19:24:36.676Z,11.52
2023-03-06T19:27:51.379Z,11.63
2023-03-06T19:31:00.599Z,11.57
2023-03-06T19:34:09.410Z,11.93
2023-03-06T19:37:18.029Z,11.30
2023-03-06T19:40:26.501Z,12.18
2023-03-06T19:43:35.410Z,11.47
2023-03-06T19:46:43.671Z,11.23
2023-03-06T19:49:52.101Z,12.13
2023-03-06T19:53:00.380Z,10.90
2023-03-06T19:56:20.372Z,12.80
2023-03-06T19:59:22.417Z,11.53
2023-03-06T20:02:37.455Z,11.38
2023-03-06T20:05:46.302Z,11.57
2023-03-06T20:09:01.637Z,11.30
2023-03-06T20:12:23.466Z,12.07
2023-03-06T20:15:25.369Z,11.60
2023-03-06T20:18:40.381Z,11.32
2023-03-06T20:21:42.514Z,11.52
2023-03-06T20:24:57.434Z,11.02
2023-03-06T20:27:59.258Z,12.35
2023-03-06T20:31:20.516Z,11.83
2023-03-06T20:34:29.425Z,11.50
2023-03-06T20:37:38.266Z,10.98
2023-03-06T20:40:48.522Z,10.98
2023-03-06T20:44:06.422Z,15.32
2023-03-06T20:47:18.052Z,13.00
2023-03-06T20:50:27.417Z,12.23
2023-03-06T20:53:35.986Z,14.35
2023-03-06T20:56:44.388Z,13.40
2023-03-06T20:59:53.094Z,11.93
2023-03-06T21:03:01.499Z,12.83
2023-03-06T21:06:16.445Z,13.43
2023-03-06T21:09:18.475Z,12.82
2023-03-06T21:12:40.412Z,12.82
2023-03-06T21:15:43.303Z,11.50
2023-03-06T21:19:00.596Z,12.07
2023-03-06T21:22:09.441Z,12.68
2023-03-06T21:25:24.439Z,13.15
2023-03-06T21:28:26.306Z,13.02
2023-03-06T21:31:42.586Z,10.70
2023-03-06T21:34:51.227Z,11.50
2023-03-06T21:37:59.432Z,10.45
2023-03-06T21:41:12.607Z,11.93
2023-03-06T21:44:20.514Z,11.18
2023-03-06T21:47:29.033Z,9.95
2023-03-06T21:50:37.457Z,10.60
2023-03-06T21:53:47.912Z,11.35
2023-03-06T21:56:56.538Z,11.50
2023-03-06T22:00:05.937Z,11.60
2023-03-06T22:03:20.426Z,12.20
2023-03-06T22:06:31.459Z,11.37
2023-03-06T22:09:46.475Z,12.07
2023-03-06T22:12:55.773Z,11.55
2023-03-06T22:16:11.581Z,11.68
2023-03-06T22:19:13.645Z,13.07
2023-03-06T22:22:29.468Z,11.10
2023-03-06T22:25:37.478Z,11.55
2023-03-06T22:28:52.504Z,11.77
2023-03-06T22:31:54.396Z,11.55
2023-03-06T22:35:09.442Z,11.93
2023-03-06T22:38:17.499Z,11.87
2023-03-06T22:41:33.485Z,11.38
2023-03-06T22:44:48.446Z,11.35
2023-03-06T22:48:10.898Z,11.00
2023-03-06T22:51:17.756Z,12.50
2023-03-06T22:54:32.446Z,11.87
2023-03-06T22:57:34.252Z,11.18
2023-03-06T23:00:49.450Z,12.30
2023-03-06T23:03:53.887Z,11.40
2023-03-06T23:07:08.486Z,12.80
2023-03-06T23:10:17.494Z,12.83
2023-03-06T23:13:32.829Z,11.65
2023-03-06T23:16:42.492Z,11.38
2023-03-06T23:19:51.122Z,12.40
2023-03-06T23:22:59.493Z,12.30
2023-03-06T23:26:08.788Z,13.13
2023-03-06T23:29:17.516Z,14.35
2023-03-06T23:32:32.588Z,14.50
2023-03-06T23:35:35.913Z,13.70
2023-03-06T23:38:51.522Z,14.87
2023-03-06T23:41:53.462Z,14.73
2023-03-06T23:45:08.538Z,14.13
2023-03-06T23:48:10.654Z,14.35
2023-03-06T23:51:28.614Z,14.05
2023-03-06T23:54:37.463Z,14.25
2023-03-06T23:57:52.512Z,15.27
